sensor_id;sensor_type;location;lat;lon;timestamp;P1;durP1;ratioP1;P2;durP2;ratioP2
2313;SDS011;42279;51.388;7.000;2023-03-21T00:00:36;5.80;;;4.33;;
2313;SDS011;42279;51.388;7.000;2023-03-21T00:03:03;6.27;;;4.43;;
2313;SDS011;42279;51.388;7.000;2023-03-21T00:05:29;8.07;;;4.63;;
2313;SDS011;42279;51.388;7.000;2023-03-21T00:07:55;5.30;;;4.50;;
2313;SDS011;42279;51.388;7.000;2023-03-21T00:10:21;5.17;;;4.27;;
2313;SDS011;42279;51.388;7.000;2023-03-21T00:12:47;9.97;;;4.77;;
2313;SDS011;42279;51.388;7.000;2023-03-21T00:15:22;5.00;;;4.60;;
2313;SDS011;42279;51.388;7.000;2023-03-21T00:17:50;8.53;;;4.90;;
2313;SDS011;42279;51.388;7.000;2023-03-21T00:20:22;5.83;;;4.67;;
2313;SDS011;42279;51.388;7.000;2023-03-21T00:22:48;4.80;;;3.70;;
2313;SDS011;42279;51.388;7.000;2023-03-21T00:25:15;5.93;;;5.30;;
2313;SDS011;42279;51.388;7.000;2023-03-21T00:27:41;4.30;;;3.97;;
2313;SDS011;42279;51.388;7.000;2023-03-21T00:30:08;6.03;;;4.33;;
2313;SDS011;42279;51.388;7.000;2023-03-21T00:32:35;5.33;;;4.40;;
2313;SDS011;42279;51.388;7.000;2023-03-21T00:35:01;9.30;;;4.40;;
2313;SDS011;42279;51.388;7.000;2023-03-21T00:37:26;6.27;;;4.20;;
2313;SDS011;42279;51.388;7.000;2023-03-21T00:39:53;8.50;;;5.47;;
2313;SDS011;42279;51.388;7.000;2023-03-21T00:42:19;7.20;;;4.50;;
2313;SDS011;42279;51.388;7.000;2023-03-21T00:44:45;4.57;;;4.17;;
2313;SDS011;42279;51.388;7.000;2023-03-21T00:47:11;9.13;;;4.70;;
2313;SDS011;42279;51.388;7.000;2023-03-21T00:49:37;9.03;;;5.30;;
2313;SDS011;42279;51.388;7.000;2023-03-21T00:52:04;8.97;;;4.57;;
2313;SDS011;42279;51.388;7.000;2023-03-21T00:54:31;8.40;;;6.10;;
2313;SDS011;42279;51.388;7.000;2023-03-21T00:57:00;4.90;;;4.50;;
2313;SDS011;42279;51.388;7.000;2023-03-21T00:59:27;5.27;;;4.63;;
2313;SDS011;42279;51.388;7.000;2023-03-21T01:01:53;4.93;;;4.50;;
2313;SDS011;42279;51.388;7.000;2023-03-21T01:04:19;5.57;;;5.00;;
2313;SDS011;42279;51.388;7.000;2023-03-21T01:06:50;5.27;;;4.73;;
2313;SDS011;42279;51.388;7.000;2023-03-21T01:09:17;5.70;;;4.80;;
2313;SDS011;42279;51.388;7.000;2023-03-21T01:11:44;6.43;;;4.70;;
2313;SDS011;42279;51.388;7.000;2023-03-21T01:14:10;11.13;;;5.20;;
2313;SDS011;42279;51.388;7.000;2023-03-21T01:16:37;5.37;;;4.87;;
2313;SDS011;42279;51.388;7.000;2023-03-21T01:19:03;5.13;;;4.63;;
2313;SDS011;42279;51.388;7.000;2023-03-21T01:21:30;14.97;;;6.60;;
2313;SDS011;42279;51.388;7.000;2023-03-21T01:23:56;9.60;;;5.40;;
2313;SDS011;42279;51.388;7.000;2023-03-21T01:26:22;9.53;;;5.40;;
2313;SDS011;42279;51.388;7.000;2023-03-21T01:28:48;8.80;;;6.03;;
2313;SDS011;42279;51.388;7.000;2023-03-21T01:31:15;12.80;;;6.97;;
2313;SDS011;42279;51.388;7.000;2023-03-21T01:33:42;8.90;;;5.77;;
2313;SDS011;42279;51.388;7.000;2023-03-21T01:36:22;8.87;;;4.97;;
2313;SDS011;42279;51.388;7.000;2023-03-21T01:38:48;12.77;;;7.00;;
2313;SDS011;42279;51.388;7.000;2023-03-21T01:41:24;7.47;;;6.67;;
2313;SDS011;42279;51.388;7.000;2023-03-21T01:43:51;12.90;;;7.07;;
2313;SDS011;42279;51.388;7.000;2023-03-21T01:48:54;7.73;;;6.87;;
2313;SDS011;42279;51.388;7.000;2023-03-21T01:51:21;9.00;;;6.77;;
2313;SDS011;42279;51.388;7.000;2023-03-21T01:53:47;10.27;;;8.10;;
2313;SDS011;42279;51.388;7.000;2023-03-21T01:56:27;9.93;;;6.33;;
2313;SDS011;42279;51.388;7.000;2023-03-21T01:58:55;9.73;;;6.67;;
2313;SDS011;42279;51.388;7.000;2023-03-21T02:01:27;14.60;;;6.90;;
2313;SDS011;42279;51.388;7.000;2023-03-21T03:25:06;12.63;;;8.90;;
2313;SDS011;42279;51.388;7.000;2023-03-21T03:27:36;15.40;;;9.00;;
2313;SDS011;42279;51.388;7.000;2023-03-21T03:30:03;12.67;;;9.00;;
2313;SDS011;42279;51.388;7.000;2023-03-21T03:32:32;10.70;;;8.40;;
2313;SDS011;42279;51.388;7.000;2023-03-21T03:35:00;19.47;;;8.73;;
2313;SDS011;42279;51.388;7.000;2023-03-21T03:37:28;15.10;;;8.93;;
2313;SDS011;42279;51.388;7.000;2023-03-21T03:40:12;13.50;;;8.40;;
2313;SDS011;42279;51.388;7.000;2023-03-21T03:42:48;11.33;;;8.27;;
2313;SDS011;42279;51.388;7.000;2023-03-21T03:45:14;12.43;;;8.20;;
2313;SDS011;42279;51.388;7.000;2023-03-21T03:48:03;13.70;;;8.30;;
2313;SDS011;42279;51.388;7.000;2023-03-21T03:50:28;9.50;;;7.90;;
2313;SDS011;42279;51.388;7.000;2023-03-21T03:53:01;8.77;;;7.87;;
2313;SDS011;42279;51.388;7.000;2023-03-21T03:55:29;10.90;;;8.50;;
2313;SDS011;42279;51.388;7.000;2023-03-21T03:57:58;11.20;;;8.37;;
2313;SDS011;42279;51.388;7.000;2023-03-21T04:00:30;12.20;;;8.10;;
2313;SDS011;42279;51.388;7.000;2023-03-21T04:02:56;17.50;;;8.40;;
2313;SDS011;42279;51.388;7.000;2023-03-21T04:05:23;9.00;;;7.67;;
2313;SDS011;42279;51.388;7.000;2023-03-21T04:07:49;13.70;;;9.20;;
2313;SDS011;42279;51.388;7.000;2023-03-21T04:10:15;16.57;;;8.33;;
2313;SDS011;42279;51.388;7.000;2023-03-21T04:12:41;9.47;;;8.57;;
2313;SDS011;42279;51.388;7.000;2023-03-21T04:15:08;13.20;;;8.00;;
2313;SDS011;42279;51.388;7.000;2023-03-21T04:17:34;9.77;;;8.10;;
2313;SDS011;42279;51.388;7.000;2023-03-21T04:20:00;11.83;;;8.20;;
2313;SDS011;42279;51.388;7.000;2023-03-21T04:22:29;11.93;;;8.00;;
2313;SDS011;42279;51.388;7.000;2023-03-21T04:24:57;8.63;;;7.73;;
2313;SDS011;42279;51.388;7.000;2023-03-21T04:27:23;13.20;;;8.47;;
2313;SDS011;42279;51.388;7.000;2023-03-21T04:29:49;9.27;;;7.20;;
2313;SDS011;42279;51.388;7.000;2023-03-21T04:32:15;14.20;;;8.83;;
2313;SDS011;42279;51.388;7.000;2023-03-21T04:34:42;14.00;;;8.53;;
2313;SDS011;42279;51.388;7.000;2023-03-21T04:37:17;8.90;;;7.07;;
2313;SDS011;42279;51.388;7.000;2023-03-21T04:39:43;9.67;;;7.33;;
2313;SDS011;42279;51.388;7.000;2023-03-21T04:42:13;11.17;;;8.17;;
2313;SDS011;42279;51.388;7.000;2023-03-21T04:44:39;14.07;;;9.30;;
2313;SDS011;42279;51.388;7.000;2023-03-21T04:47:05;9.77;;;7.93;;
2313;SDS011;42279;51.388;7.000;2023-03-21T04:49:31;9.93;;;8.10;;
2313;SDS011;42279;51.388;7.000;2023-03-21T04:51:58;17.03;;;8.60;;
2313;SDS011;42279;51.388;7.000;2023-03-21T04:54:24;7.93;;;7.23;;
2313;SDS011;42279;51.388;7.000;2023-03-21T04:59:22;14.03;;;8.60;;
2313;SDS011;42279;51.388;7.000;2023-03-21T05:01:49;12.70;;;8.23;;
2313;SDS011;42279;51.388;7.000;2023-03-21T05:04:16;11.20;;;8.83;;
2313;SDS011;42279;51.388;7.000;2023-03-21T05:06:48;9.47;;;7.30;;
2313;SDS011;42279;51.388;7.000;2023-03-21T05:09:14;10.70;;;8.10;;
2313;SDS011;42279;51.388;7.000;2023-03-21T05:11:41;12.43;;;8.03;;
2313;SDS011;42279;51.388;7.000;2023-03-21T05:14:17;9.23;;;8.13;;
2313;SDS011;42279;51.388;7.000;2023-03-21T05:16:44;7.90;;;6.70;;
2313;SDS011;42279;51.388;7.000;2023-03-21T05:19:17;14.30;;;7.93;;
2313;SDS011;42279;51.388;7.000;2023-03-21T05:21:45;8.37;;;7.00;;
2313;SDS011;42279;51.388;7.000;2023-03-21T05:24:12;12.87;;;7.47;;
2313;SDS011;42279;51.388;7.000;2023-03-21T05:26:41;9.10;;;7.20;;
2313;SDS011;42279;51.388;7.000;2023-03-21T05:29:08;9.40;;;7.37;;
2313;SDS011;42279;51.388;7.000;2023-03-21T05:31:34;8.23;;;6.57;;
2313;SDS011;42279;51.388;7.000;2023-03-21T05:34:03;9.60;;;6.90;;
2313;SDS011;42279;51.388;7.000;2023-03-21T05:36:54;9.10;;;7.40;;
2313;SDS011;42279;51.388;7.000;2023-03-21T05:39:23;8.30;;;6.43;;
2313;SDS011;42279;51.388;7.000;2023-03-21T05:41:49;8.07;;;6.70;;
2313;SDS011;42279;51.388;7.000;2023-03-21T05:44:15;7.30;;;6.60;;
2313;SDS011;42279;51.388;7.000;2023-03-21T05:46:43;7.43;;;6.17;;
2313;SDS011;42279;51.388;7.000;2023-03-21T05:49:10;9.27;;;7.03;;
2313;SDS011;42279;51.388;7.000;2023-03-21T05:51:36;9.20;;;8.07;;
2313;SDS011;42279;51.388;7.000;2023-03-21T05:54:14;9.47;;;6.50;;
2313;SDS011;42279;51.388;7.000;2023-03-21T05:56:40;9.90;;;6.83;;
2313;SDS011;42279;51.388;7.000;2023-03-21T05:59:06;12.13;;;7.97;;
2313;SDS011;42279;51.388;7.000;2023-03-21T06:01:32;9.40;;;6.80;;
2313;SDS011;42279;51.388;7.000;2023-03-21T06:03:59;8.00;;;7.00;;
2313;SDS011;42279;51.388;7.000;2023-03-21T06:06:26;10.63;;;7.50;;
2313;SDS011;42279;51.388;7.000;2023-03-21T06:09:32;7.00;;;6.30;;
2313;SDS011;42279;51.388;7.000;2023-03-21T06:11:58;7.43;;;6.93;;
2313;SDS011;42279;51.388;7.000;2023-03-21T06:14:25;8.40;;;6.50;;
2313;SDS011;42279;51.388;7.000;2023-03-21T06:16:51;11.80;;;7.90;;
2313;SDS011;42279;51.388;7.000;2023-03-21T06:19:25;5.60;;;5.00;;
2313;SDS011;42279;51.388;7.000;2023-03-21T06:21:51;8.63;;;6.90;;
2313;SDS011;42279;51.388;7.000;2023-03-21T06:24:20;8.53;;;6.00;;
2313;SDS011;42279;51.388;7.000;2023-03-21T06:26:46;6.27;;;5.63;;
2313;SDS011;42279;51.388;7.000;2023-03-21T06:29:12;12.07;;;6.73;;
2313;SDS011;42279;51.388;7.000;2023-03-21T06:31:41;9.40;;;5.73;;
2313;SDS011;42279;51.388;7.000;2023-03-21T06:34:09;8.90;;;7.20;;
2313;SDS011;42279;51.388;7.000;2023-03-21T06:36:38;10.27;;;6.43;;
2313;SDS011;42279;51.388;7.000;2023-03-21T06:39:12;8.20;;;6.37;;
2313;SDS011;42279;51.388;7.000;2023-03-21T06:41:40;8.23;;;5.50;;
2313;SDS011;42279;51.388;7.000;2023-03-21T06:44:08;11.40;;;6.90;;
2313;SDS011;42279;51.388;7.000;2023-03-21T06:46:34;6.53;;;5.80;;
2313;SDS011;42279;51.388;7.000;2023-03-21T06:49:06;7.77;;;7.13;;
2313;SDS011;42279;51.388;7.000;2023-03-21T06:51:32;8.33;;;7.40;;
2313;SDS011;42279;51.388;7.000;2023-03-21T06:54:09;6.83;;;5.50;;
2313;SDS011;42279;51.388;7.000;2023-03-21T06:56:58;15.17;;;7.00;;
2313;SDS011;42279;51.388;7.000;2023-03-21T06:59:24;5.10;;;4.70;;
2313;SDS011;42279;51.388;7.000;2023-03-21T07:01:50;11.83;;;7.07;;
2313;SDS011;42279;51.388;7.000;2023-03-21T07:04:16;6.77;;;6.07;;
2313;SDS011;42279;51.388;7.000;2023-03-21T07:06:42;7.97;;;6.07;;
2313;SDS011;42279;51.388;7.000;2023-03-21T07:09:08;6.40;;;5.80;;
2313;SDS011;42279;51.388;7.000;2023-03-21T07:11:34;11.23;;;5.33;;
2313;SDS011;42279;51.388;7.000;2023-03-21T07:14:00;8.00;;;5.27;;
2313;SDS011;42279;51.388;7.000;2023-03-21T07:16:26;15.70;;;7.10;;
2313;SDS011;42279;51.388;7.000;2023-03-21T07:18:52;10.60;;;6.70;;
2313;SDS011;42279;51.388;7.000;2023-03-21T07:21:19;6.83;;;5.97;;
2313;SDS011;42279;51.388;7.000;2023-03-21T07:23:45;11.33;;;5.87;;
2313;SDS011;42279;51.388;7.000;2023-03-21T07:26:11;7.97;;;4.43;;
2313;SDS011;42279;51.388;7.000;2023-03-21T07:28:37;8.20;;;5.40;;
2313;SDS011;42279;51.388;7.000;2023-03-21T07:31:06;13.83;;;6.53;;
2313;SDS011;42279;51.388;7.000;2023-03-21T07:33:33;6.53;;;5.10;;
2313;SDS011;42279;51.388;7.000;2023-03-21T07:35:59;6.90;;;5.90;;
2313;SDS011;42279;51.388;7.000;2023-03-21T07:38:26;12.40;;;5.90;;
2313;SDS011;42279;51.388;7.000;2023-03-21T07:40:54;12.27;;;5.70;;
2313;SDS011;42279;51.388;7.000;2023-03-21T07:43:20;8.03;;;6.80;;
2313;SDS011;42279;51.388;7.000;2023-03-21T07:45:46;8.57;;;5.07;;
2313;SDS011;42279;51.388;7.000;2023-03-21T07:48:12;6.47;;;5.80;;
2313;SDS011;42279;51.388;7.000;2023-03-21T07:50:41;5.50;;;5.20;;
2313;SDS011;42279;51.388;7.000;2023-03-21T07:53:07;13.43;;;6.27;;
2313;SDS011;42279;51.388;7.000;2023-03-21T07:55:33;8.13;;;5.80;;
2313;SDS011;42279;51.388;7.000;2023-03-21T07:58:00;6.17;;;5.60;;
2313;SDS011;42279;51.388;7.000;2023-03-21T08:00:26;5.83;;;5.27;;
2313;SDS011;42279;51.388;7.000;2023-03-21T08:02:52;8.13;;;7.20;;
2313;SDS011;42279;51.388;7.000;2023-03-21T08:05:25;8.70;;;6.20;;
2313;SDS011;42279;51.388;7.000;2023-03-21T08:08:04;8.17;;;6.37;;
2313;SDS011;42279;51.388;7.000;2023-03-21T08:10:32;12.27;;;6.30;;
2313;SDS011;42279;51.388;7.000;2023-03-21T08:13:07;7.00;;;4.70;;
2313;SDS011;42279;51.388;7.000;2023-03-21T08:15:35;7.80;;;7.10;;
2313;SDS011;42279;51.388;7.000;2023-03-21T08:18:01;9.83;;;5.97;;
2313;SDS011;42279;51.388;7.000;2023-03-21T08:20:28;6.87;;;6.03;;
2313;SDS011;42279;51.388;7.000;2023-03-21T08:22:54;7.73;;;5.70;;
2313;SDS011;42279;51.388;7.000;2023-03-21T08:25:20;8.53;;;6.90;;
2313;SDS011;42279;51.388;7.000;2023-03-21T08:27:46;9.07;;;5.40;;
2313;SDS011;42279;51.388;7.000;2023-03-21T08:30:13;8.50;;;5.80;;
2313;SDS011;42279;51.388;7.000;2023-03-21T08:32:40;8.37;;;6.50;;
2313;SDS011;42279;51.388;7.000;2023-03-21T08:35:07;8.93;;;6.23;;
2313;SDS011;42279;51.388;7.000;2023-03-21T08:37:37;8.07;;;7.30;;
2313;SDS011;42279;51.388;7.000;2023-03-21T08:40:03;12.17;;;7.67;;
2313;SDS011;42279;51.388;7.000;2023-03-21T08:42:35;4.87;;;4.37;;
2313;SDS011;42279;51.388;7.000;2023-03-21T08:45:01;7.43;;;6.80;;
2313;SDS011;42279;51.388;7.000;2023-03-21T08:47:28;13.23;;;8.27;;
2313;SDS011;42279;51.388;7.000;2023-03-21T08:49:55;13.33;;;8.30;;
2313;SDS011;42279;51.388;7.000;2023-03-21T08:52:21;10.87;;;7.30;;
2313;SDS011;42279;51.388;7.000;2023-03-21T08:54:50;9.20;;;7.40;;
2313;SDS011;42279;51.388;7.000;2023-03-21T08:57:16;12.50;;;7.33;;
2313;SDS011;42279;51.388;7.000;2023-03-21T08:59:42;8.10;;;7.40;;
2313;SDS011;42279;51.388;7.000;2023-03-21T09:02:15;16.47;;;7.53;;
2313;SDS011;42279;51.388;7.000;2023-03-21T09:04:41;9.27;;;7.33;;
2313;SDS011;42279;51.388;7.000;2023-03-21T09:07:07;10.43;;;5.93;;
2313;SDS011;42279;51.388;7.000;2023-03-21T09:09:35;10.73;;;7.93;;
2313;SDS011;42279;51.388;7.000;2023-03-21T09:12:01;8.77;;;7.57;;
2313;SDS011;42279;51.388;7.000;2023-03-21T09:14:27;8.40;;;7.60;;
2313;SDS011;42279;51.388;7.000;2023-03-21T09:16:53;9.07;;;7.87;;
2313;SDS011;42279;51.388;7.000;2023-03-21T09:19:24;6.93;;;5.90;;
2313;SDS011;42279;51.388;7.000;2023-03-21T09:21:51;10.73;;;7.73;;
2313;SDS011;42279;51.388;7.000;2023-03-21T09:24:18;12.77;;;7.87;;
2313;SDS011;42279;51.388;7.000;2023-03-21T09:26:44;13.27;;;8.73;;
2313;SDS011;42279;51.388;7.000;2023-03-21T09:29:14;13.20;;;8.50;;
2313;SDS011;42279;51.388;7.000;2023-03-21T09:31:40;8.67;;;7.30;;
2313;SDS011;42279;51.388;7.000;2023-03-21T09:34:07;15.33;;;9.67;;
2313;SDS011;42279;51.388;7.000;2023-03-21T09:36:33;10.10;;;5.77;;
2313;SDS011;42279;51.388;7.000;2023-03-21T09:39:00;12.37;;;6.73;;
2313;SDS011;42279;51.388;7.000;2023-03-21T09:41:46;14.20;;;8.87;;
2313;SDS011;42279;51.388;7.000;2023-03-21T09:52:51;9.03;;;7.27;;
2313;SDS011;42279;51.388;7.000;2023-03-21T09:55:23;6.73;;;5.70;;
2313;SDS011;42279;51.388;7.000;2023-03-21T10:00:26;7.70;;;6.00;;
2313;SDS011;42279;51.388;7.000;2023-03-21T10:02:54;6.97;;;6.23;;
2313;SDS011;42279;51.388;7.000;2023-03-21T10:05:24;5.93;;;5.43;;
2313;SDS011;42279;51.388;7.000;2023-03-21T10:10:22;7.17;;;6.27;;
2313;SDS011;42279;51.388;7.000;2023-03-21T10:12:51;5.13;;;4.77;;
2313;SDS011;42279;51.388;7.000;2023-03-21T10:15:18;7.07;;;4.80;;
2313;SDS011;42279;51.388;7.000;2023-03-21T10:17:50;5.43;;;4.90;;
2313;SDS011;42279;51.388;7.000;2023-03-21T10:22:46;7.00;;;6.13;;
2313;SDS011;42279;51.388;7.000;2023-03-21T10:25:14;6.33;;;3.87;;
2313;SDS011;42279;51.388;7.000;2023-03-21T10:27:41;7.30;;;5.40;;
2313;SDS011;42279;51.388;7.000;2023-03-21T10:30:07;6.60;;;5.67;;
2313;SDS011;42279;51.388;7.000;2023-03-21T10:32:34;8.67;;;4.77;;
2313;SDS011;42279;51.388;7.000;2023-03-21T10:35:01;5.37;;;5.00;;
2313;SDS011;42279;51.388;7.000;2023-03-21T10:37:29;5.00;;;4.40;;
2313;SDS011;42279;51.388;7.000;2023-03-21T10:39:56;11.00;;;5.07;;
2313;SDS011;42279;51.388;7.000;2023-03-21T10:42:29;5.83;;;5.30;;
2313;SDS011;42279;51.388;7.000;2023-03-21T10:44:57;6.13;;;5.70;;
2313;SDS011;42279;51.388;7.000;2023-03-21T10:47:24;9.90;;;6.10;;
2313;SDS011;42279;51.388;7.000;2023-03-21T10:49:50;7.83;;;6.00;;
2313;SDS011;42279;51.388;7.000;2023-03-21T10:52:20;6.57;;;5.77;;
2313;SDS011;42279;51.388;7.000;2023-03-21T10:54:50;6.03;;;5.53;;
2313;SDS011;42279;51.388;7.000;2023-03-21T10:57:29;6.50;;;5.57;;
2313;SDS011;42279;51.388;7.000;2023-03-21T10:59:56;6.57;;;5.97;;
2313;SDS011;42279;51.388;7.000;2023-03-21T11:02:34;7.57;;;6.50;;
2313;SDS011;42279;51.388;7.000;2023-03-21T11:06:03;6.47;;;5.80;;
2313;SDS011;42279;51.388;7.000;2023-03-21T11:08:16;9.10;;;5.37;;
2313;SDS011;42279;51.388;7.000;2023-03-21T11:13:33;5.37;;;4.87;;
2313;SDS011;42279;51.388;7.000;2023-03-21T11:16:17;6.50;;;5.40;;
2313;SDS011;42279;51.388;7.000;2023-03-21T11:18:44;5.33;;;4.97;;
2313;SDS011;42279;51.388;7.000;2023-03-21T11:21:14;8.70;;;5.70;;
2313;SDS011;42279;51.388;7.000;2023-03-21T11:23:42;5.47;;;5.00;;
2313;SDS011;42279;51.388;7.000;2023-03-21T11:26:11;6.43;;;5.40;;
2313;SDS011;42279;51.388;7.000;2023-03-21T11:28:41;5.10;;;4.63;;
2313;SDS011;42279;51.388;7.000;2023-03-21T11:31:08;5.47;;;5.00;;
2313;SDS011;42279;51.388;7.000;2023-03-21T11:33:36;11.47;;;4.00;;
2313;SDS011;42279;51.388;7.000;2023-03-21T11:38:37;4.07;;;3.70;;
2313;SDS011;42279;51.388;7.000;2023-03-21T11:41:04;4.40;;;3.97;;
2313;SDS011;42279;51.388;7.000;2023-03-21T11:43:34;4.63;;;4.23;;
2313;SDS011;42279;51.388;7.000;2023-03-21T11:48:35;4.30;;;3.90;;
2313;SDS011;42279;51.388;7.000;2023-03-21T11:51:03;4.33;;;3.93;;
2313;SDS011;42279;51.388;7.000;2023-03-21T12:03:40;3.90;;;3.40;;
2313;SDS011;42279;51.388;7.000;2023-03-21T12:06:19;3.43;;;3.33;;
2313;SDS011;42279;51.388;7.000;2023-03-21T12:08:53;2.70;;;2.60;;
2313;SDS011;42279;51.388;7.000;2023-03-21T12:14:17;5.30;;;4.00;;
2313;SDS011;42279;51.388;7.000;2023-03-21T12:24:19;3.50;;;3.30;;
2313;SDS011;42279;51.388;7.000;2023-03-21T12:29:23;2.80;;;2.70;;
2313;SDS011;42279;51.388;7.000;2023-03-21T12:31:54;3.43;;;3.27;;
2313;SDS011;42279;51.388;7.000;2023-03-21T12:39:42;4.37;;;3.80;;
2313;SDS011;42279;51.388;7.000;2023-03-21T12:45:02;4.83;;;4.43;;
2313;SDS011;42279;51.388;7.000;2023-03-21T12:47:33;6.23;;;4.83;;
2313;SDS011;42279;51.388;7.000;2023-03-21T12:52:49;4.77;;;4.37;;
2313;SDS011;42279;51.388;7.000;2023-03-21T12:55:24;3.40;;;3.07;;
2313;SDS011;42279;51.388;7.000;2023-03-21T12:58:08;5.30;;;4.10;;
2313;SDS011;42279;51.388;7.000;2023-03-21T13:00:43;4.20;;;4.00;;
2313;SDS011;42279;51.388;7.000;2023-03-21T13:03:14;5.60;;;2.40;;
2313;SDS011;42279;51.388;7.000;2023-03-21T13:08:30;3.73;;;3.47;;
2313;SDS011;42279;51.388;7.000;2023-03-21T13:11:01;3.90;;;3.60;;
2313;SDS011;42279;51.388;7.000;2023-03-21T13:16:40;4.27;;;4.00;;
2313;SDS011;42279;51.388;7.000;2023-03-21T13:21:49;3.33;;;3.07;;
2313;SDS011;42279;51.388;7.000;2023-03-21T13:26:44;4.40;;;4.00;;
2313;SDS011;42279;51.388;7.000;2023-03-21T13:29:14;4.50;;;4.20;;
2313;SDS011;42279;51.388;7.000;2023-03-21T13:31:43;3.13;;;3.03;;
2313;SDS011;42279;51.388;7.000;2023-03-21T13:34:12;4.77;;;4.33;;
2313;SDS011;42279;51.388;7.000;2023-03-21T13:36:39;5.47;;;4.70;;
2313;SDS011;42279;51.388;7.000;2023-03-21T13:39:06;3.30;;;3.00;;
2313;SDS011;42279;51.388;7.000;2023-03-21T13:41:41;4.20;;;3.80;;
2313;SDS011;42279;51.388;7.000;2023-03-21T13:44:15;2.97;;;2.87;;
2313;SDS011;42279;51.388;7.000;2023-03-21T13:46:51;6.53;;;4.50;;
2313;SDS011;42279;51.388;7.000;2023-03-21T13:49:31;4.30;;;4.07;;
2313;SDS011;42279;51.388;7.000;2023-03-21T13:51:59;4.70;;;3.70;;
2313;SDS011;42279;51.388;7.000;2023-03-21T13:56:56;4.47;;;2.70;;
2313;SDS011;42279;51.388;7.000;2023-03-21T13:59:39;3.77;;;3.67;;
2313;SDS011;42279;51.388;7.000;2023-03-21T14:04:53;2.60;;;2.60;;
2313;SDS011;42279;51.388;7.000;2023-03-21T14:07:22;3.00;;;3.00;;
2313;SDS011;42279;51.388;7.000;2023-03-21T14:09:51;3.23;;;3.10;;
2313;SDS011;42279;51.388;7.000;2023-03-21T14:12:19;3.20;;;3.00;;
2313;SDS011;42279;51.388;7.000;2023-03-21T14:15:37;3.50;;;3.20;;
2313;SDS011;42279;51.388;7.000;2023-03-21T14:17:34;2.80;;;2.70;;
2313;SDS011;42279;51.388;7.000;2023-03-21T14:20:18;2.43;;;2.43;;
2313;SDS011;42279;51.388;7.000;2023-03-21T14:22:47;5.07;;;3.50;;
2313;SDS011;42279;51.388;7.000;2023-03-21T14:25:14;3.63;;;3.53;;
2313;SDS011;42279;51.388;7.000;2023-03-21T14:27:45;2.90;;;2.70;;
2313;SDS011;42279;51.388;7.000;2023-03-21T14:30:23;4.03;;;3.83;;
2313;SDS011;42279;51.388;7.000;2023-03-21T14:32:50;2.53;;;2.33;;
2313;SDS011;42279;51.388;7.000;2023-03-21T14:35:18;4.23;;;3.83;;
2313;SDS011;42279;51.388;7.000;2023-03-21T14:37:46;4.30;;;3.60;;
2313;SDS011;42279;51.388;7.000;2023-03-21T14:40:22;4.63;;;3.17;;
2313;SDS011;42279;51.388;7.000;2023-03-21T14:42:49;5.73;;;3.60;;
2313;SDS011;42279;51.388;7.000;2023-03-21T14:45:20;3.90;;;3.60;;
2313;SDS011;42279;51.388;7.000;2023-03-21T14:47:54;2.90;;;2.80;;
2313;SDS011;42279;51.388;7.000;2023-03-21T14:50:26;5.80;;;3.37;;
2313;SDS011;42279;51.388;7.000;2023-03-21T14:52:53;4.30;;;4.00;;
2313;SDS011;42279;51.388;7.000;2023-03-21T14:55:19;3.87;;;3.60;;
2313;SDS011;42279;51.388;7.000;2023-03-21T14:57:45;4.47;;;3.90;;
2313;SDS011;42279;51.388;7.000;2023-03-21T15:00:15;3.60;;;3.30;;
2313;SDS011;42279;51.388;7.000;2023-03-21T15:02:42;3.30;;;3.00;;
2313;SDS011;42279;51.388;7.000;2023-03-21T15:07:39;5.77;;;3.53;;
2313;SDS011;42279;51.388;7.000;2023-03-21T15:10:06;3.63;;;3.43;;
2313;SDS011;42279;51.388;7.000;2023-03-21T15:12:33;5.93;;;4.70;;
2313;SDS011;42279;51.388;7.000;2023-03-21T15:14:59;3.10;;;2.93;;
2313;SDS011;42279;51.388;7.000;2023-03-21T15:17:27;5.60;;;4.23;;
2313;SDS011;42279;51.388;7.000;2023-03-21T15:19:53;3.70;;;3.50;;
2313;SDS011;42279;51.388;7.000;2023-03-21T15:22:33;3.30;;;3.10;;
2313;SDS011;42279;51.388;7.000;2023-03-21T15:25:02;3.53;;;3.43;;
2313;SDS011;42279;51.388;7.000;2023-03-21T15:27:30;3.70;;;3.50;;
2313;SDS011;42279;51.388;7.000;2023-03-21T15:29:57;4.37;;;4.07;;
2313;SDS011;42279;51.388;7.000;2023-03-21T15:32:24;4.10;;;3.73;;
2313;SDS011;42279;51.388;7.000;2023-03-21T15:34:55;4.40;;;4.10;;
2313;SDS011;42279;51.388;7.000;2023-03-21T15:37:32;4.20;;;4.03;;
2313;SDS011;42279;51.388;7.000;2023-03-21T15:42:40;3.73;;;3.63;;
2313;SDS011;42279;51.388;7.000;2023-03-21T15:45:13;2.63;;;2.63;;
2313;SDS011;42279;51.388;7.000;2023-03-21T15:50:09;4.53;;;3.97;;
2313;SDS011;42279;51.388;7.000;2023-03-21T15:52:36;3.70;;;3.40;;
2313;SDS011;42279;51.388;7.000;2023-03-21T15:55:09;3.93;;;3.67;;
2313;SDS011;42279;51.388;7.000;2023-03-21T15:57:37;4.10;;;3.70;;
2313;SDS011;42279;51.388;7.000;2023-03-21T16:00:20;3.40;;;3.00;;
2313;SDS011;42279;51.388;7.000;2023-03-21T16:02:46;3.83;;;3.73;;
2313;SDS011;42279;51.388;7.000;2023-03-21T16:05:26;3.30;;;3.17;;
2313;SDS011;42279;51.388;7.000;2023-03-21T16:07:56;5.03;;;3.70;;
2313;SDS011;42279;51.388;7.000;2023-03-21T16:10:27;2.83;;;2.60;;
2313;SDS011;42279;51.388;7.000;2023-03-21T16:12:56;3.90;;;3.77;;
2313;SDS011;42279;51.388;7.000;2023-03-21T16:15:23;3.43;;;3.33;;
2313;SDS011;42279;51.388;7.000;2023-03-21T16:17:51;3.70;;;3.50;;
2313;SDS011;42279;51.388;7.000;2023-03-21T16:20:22;5.23;;;4.83;;
2313;SDS011;42279;51.388;7.000;2023-03-21T16:22:48;3.87;;;3.67;;
2313;SDS011;42279;51.388;7.000;2023-03-21T16:25:15;3.40;;;3.40;;
2313;SDS011;42279;51.388;7.000;2023-03-21T16:27:41;4.83;;;4.27;;
2313;SDS011;42279;51.388;7.000;2023-03-21T16:30:10;4.13;;;3.80;;
2313;SDS011;42279;51.388;7.000;2023-03-21T16:32:36;4.70;;;3.83;;
2313;SDS011;42279;51.388;7.000;2023-03-21T16:35:02;4.20;;;4.00;;
2313;SDS011;42279;51.388;7.000;2023-03-21T16:37:29;5.17;;;4.63;;
2313;SDS011;42279;51.388;7.000;2023-03-21T16:39:55;3.33;;;3.03;;
2313;SDS011;42279;51.388;7.000;2023-03-21T16:42:21;4.60;;;4.30;;
2313;SDS011;42279;51.388;7.000;2023-03-21T16:44:47;5.10;;;4.80;;
2313;SDS011;42279;51.388;7.000;2023-03-21T16:47:14;4.60;;;4.20;;
2313;SDS011;42279;51.388;7.000;2023-03-21T16:49:48;4.33;;;4.23;;
2313;SDS011;42279;51.388;7.000;2023-03-21T16:52:15;5.60;;;4.07;;
2313;SDS011;42279;51.388;7.000;2023-03-21T16:54:41;4.97;;;4.57;;
2313;SDS011;42279;51.388;7.000;2023-03-21T16:57:13;5.20;;;4.90;;
2313;SDS011;42279;51.388;7.000;2023-03-21T16:59:42;5.13;;;4.63;;
2313;SDS011;42279;51.388;7.000;2023-03-21T17:02:12;6.40;;;5.93;;
2313;SDS011;42279;51.388;7.000;2023-03-21T17:04:38;6.37;;;5.37;;
2313;SDS011;42279;51.388;7.000;2023-03-21T17:07:05;5.33;;;4.93;;
2313;SDS011;42279;51.388;7.000;2023-03-21T17:09:32;7.23;;;4.67;;
2313;SDS011;42279;51.388;7.000;2023-03-21T17:11:58;5.47;;;4.97;;
2313;SDS011;42279;51.388;7.000;2023-03-21T17:14:24;7.23;;;6.07;;
2313;SDS011;42279;51.388;7.000;2023-03-21T17:16:52;6.03;;;4.80;;
2313;SDS011;42279;51.388;7.000;2023-03-21T17:19:20;4.80;;;4.60;;
2313;SDS011;42279;51.388;7.000;2023-03-21T17:21:52;5.70;;;5.30;;
2313;SDS011;42279;51.388;7.000;2023-03-21T17:24:19;6.00;;;5.67;;
2313;SDS011;42279;51.388;7.000;2023-03-21T17:26:47;4.53;;;4.30;;
2313;SDS011;42279;51.388;7.000;2023-03-21T17:29:13;5.20;;;4.80;;
2313;SDS011;42279;51.388;7.000;2023-03-21T17:31:40;4.87;;;4.67;;
2313;SDS011;42279;51.388;7.000;2023-03-21T17:34:07;6.37;;;5.43;;
2313;SDS011;42279;51.388;7.000;2023-03-21T17:36:35;5.33;;;5.03;;
2313;SDS011;42279;51.388;7.000;2023-03-21T17:39:03;5.27;;;4.90;;
2313;SDS011;42279;51.388;7.000;2023-03-21T17:41:30;6.23;;;5.83;;
2313;SDS011;42279;51.388;7.000;2023-03-21T17:43:56;6.37;;;5.90;;
2313;SDS011;42279;51.388;7.000;2023-03-21T17:46:23;9.57;;;8.00;;
2313;SDS011;42279;51.388;7.000;2023-03-21T17:48:49;6.40;;;6.00;;
2313;SDS011;42279;51.388;7.000;2023-03-21T17:51:16;5.63;;;5.33;;
2313;SDS011;42279;51.388;7.000;2023-03-21T17:53:46;4.80;;;4.60;;
2313;SDS011;42279;51.388;7.000;2023-03-21T17:56:26;4.33;;;4.13;;